createdAt,value
2022-08-08T00:02:29.934Z,2.20
2022-08-08T00:05:10.629Z,1.80
2022-08-08T00:07:56.318Z,2.25
2022-08-08T00:10:54.529Z,1.67
2022-08-08T00:14:17.549Z,1.75
2022-08-08T00:16:45.896Z,1.80
2022-08-08T00:19:46.772Z,2.50
2022-08-08T00:22:43.797Z,2.20
2022-08-08T00:25:24.637Z,2.20
2022-08-08T00:28:01.625Z,3.38
2022-08-08T00:30:45.204Z,2.42
2022-08-08T00:33:47.738Z,1.92
2022-08-08T00:36:35.202Z,2.25
2022-08-08T00:41:09.246Z,1.98
2022-08-08T00:42:52.655Z,1.70
2022-08-08T00:45:57.371Z,1.95
2022-08-08T00:48:59.030Z,1.80
2022-08-08T00:51:57.187Z,1.95
2022-08-08T00:54:33.212Z,1.95
2022-08-08T00:57:59.745Z,1.77
2022-08-08T01:00:39.637Z,1.60
2022-08-08T01:04:02.425Z,2.03
2022-08-08T01:06:44.463Z,1.83
2022-08-08T01:09:35.591Z,1.77
2022-08-08T01:12:42.284Z,2.33
2022-08-08T01:15:54.154Z,2.22
2022-08-08T01:19:13.818Z,1.73
2022-08-08T01:22:34.674Z,1.65
2022-08-08T01:25:26.432Z,1.70
2022-08-08T01:28:27.740Z,1.92
2022-08-08T01:32:05.754Z,1.60
2022-08-08T01:35:15.834Z,1.75
2022-08-08T01:38:27.831Z,1.58
2022-08-08T01:41:02.652Z,1.90
2022-08-08T01:43:57.897Z,1.80
2022-08-08T01:46:52.788Z,1.73
2022-08-08T01:49:53.770Z,2.08
2022-08-08T01:55:17.936Z,1.55
2022-08-08T01:56:30.924Z,1.98
2022-08-08T01:59:23.832Z,1.83
2022-08-08T02:02:34.242Z,1.92
2022-08-08T02:05:33.654Z,2.15
2022-08-08T02:08:56.143Z,1.50
2022-08-08T02:11:52.977Z,1.80
2022-08-08T02:14:55.621Z,1.67
2022-08-08T02:17:50.617Z,1.63
2022-08-08T02:21:13.408Z,1.77
2022-08-08T02:24:24.685Z,1.77
2022-08-08T02:27:18.150Z,1.42
2022-08-08T02:30:04.966Z,2.08
2022-08-08T02:33:05.573Z,1.60
2022-08-08T02:36:28.839Z,1.60
2022-08-08T02:39:59.558Z,1.50
2022-08-08T02:44:42.818Z,1.48
2022-08-08T02:46:58.790Z,1.80
2022-08-08T02:49:51.906Z,1.50
2022-08-08T02:52:40.177Z,1.35
2022-08-08T02:55:24.289Z,1.80
2022-08-08T02:58:26.699Z,1.73
2022-08-08T03:01:02.519Z,2.00
2022-08-08T03:05:09.158Z,1.75
2022-08-08T03:07:58.231Z,1.70
2022-08-08T03:11:47.404Z,1.63
2022-08-08T03:16:02.366Z,1.60
2022-08-08T03:18:31.306Z,1.90
2022-08-08T03:20:58.422Z,1.60
2022-08-08T03:23:30.431Z,1.95
2022-08-08T03:26:07.960Z,1.67
2022-08-08T03:28:51.331Z,1.55
2022-08-08T03:32:06.413Z,1.90
2022-08-08T03:34:29.664Z,1.60
2022-08-08T03:36:57.169Z,1.90
2022-08-08T03:39:24.411Z,1.85
2022-08-08T03:42:27.536Z,1.67
2022-08-08T03:44:38.768Z,1.88
2022-08-08T03:47:14.160Z,2.20
2022-08-08T03:49:57.184Z,1.85
2022-08-08T03:52:31.775Z,1.80
2022-08-08T03:55:09.651Z,2.03
2022-08-08T03:58:31.265Z,1.60
2022-08-08T04:00:30.883Z,1.33
2022-08-08T04:03:11.475Z,1.95
2022-08-08T04:05:39.762Z,1.85
2022-08-08T04:08:32.851Z,2.08
2022-08-08T04:11:10.904Z,2.03
2022-08-08T04:14:03.966Z,2.53
2022-08-08T04:16:38.525Z,2.20
2022-08-08T04:19:23.808Z,2.20
2022-08-08T04:21:50.994Z,2.30
2022-08-08T04:24:28.133Z,2.33
2022-08-08T04:26:58.762Z,2.17
2022-08-08T04:29:37.027Z,3.03
2022-08-08T04:32:07.352Z,2.63
2022-08-08T04:34:49.384Z,2.13
2022-08-08T04:37:26.380Z,1.70
2022-08-08T04:40:06.361Z,2.28
2022-08-08T04:42:55.846Z,2.60
2022-08-08T04:45:27.836Z,2.33
2022-08-08T04:48:00.397Z,2.15
2022-08-08T04:50:34.376Z,2.10
2022-08-08T04:53:13.725Z,2.13
2022-08-08T04:55:56.272Z,1.80
2022-08-08T04:58:23.787Z,1.75
2022-08-08T05:00:51.534Z,1.85
2022-08-08T05:04:10.765Z,2.20
2022-08-08T05:06:13.399Z,1.80
2022-08-08T05:08:44.570Z,1.70
2022-08-08T05:11:18.756Z,2.05
2022-08-08T05:13:58.388Z,2.13
2022-08-08T05:16:51.310Z,1.90
2022-08-08T05:20:04.181Z,2.33
2022-08-08T05:22:10.198Z,1.85
2022-08-08T05:24:38.537Z,1.58
2022-08-08T05:27:06.020Z,1.95
2022-08-08T05:29:35.555Z,1.80
2022-08-08T05:32:06.603Z,1.67
2022-08-08T05:34:49.915Z,1.60
2022-08-08T05:37:39.215Z,1.55
2022-08-08T05:40:14.760Z,1.63
2022-08-08T05:42:51.650Z,1.55
2022-08-08T05:45:25.598Z,1.88
2022-08-08T05:48:08.732Z,1.90
2022-08-08T05:50:38.538Z,1.90
2022-08-08T05:53:54.290Z,1.77
2022-08-08T05:56:09.801Z,1.50
2022-08-08T05:58:54.192Z,1.40
2022-08-08T06:01:56.439Z,1.70
2022-08-08T06:04:23.832Z,1.67
2022-08-08T06:07:00.313Z,1.50
2022-08-08T06:09:58.124Z,2.15
2022-08-08T06:12:30.958Z,1.70
2022-08-08T06:15:06.146Z,1.45
2022-08-08T06:17:51.012Z,1.58
2022-08-08T06:20:27.386Z,1.48
2022-08-08T06:22:56.204Z,4.65
2022-08-08T06:26:35.186Z,3.40
2022-08-08T06:28:29.685Z,2.63
2022-08-08T06:31:06.261Z,2.90
2022-08-08T06:34:26.524Z,2.17
2022-08-08T06:36:53.865Z,1.92
2022-08-08T06:39:22.285Z,2.15
2022-08-08T06:41:58.995Z,1.92
2022-08-08T06:44:33.596Z,2.05
2022-08-08T06:47:01.668Z,2.03
2022-08-08T06:49:56.627Z,2.10
2022-08-08T06:52:17.780Z,1.27
2022-08-08T06:54:49.216Z,0.98
2022-08-08T06:57:16.052Z,1.10
2022-08-08T07:00:10.855Z,1.40
2022-08-08T07:02:33.746Z,1.15
2022-08-08T07:05:06.673Z,1.30
2022-08-08T07:07:51.841Z,1.50
2022-08-08T07:10:21.690Z,1.08
2022-08-08T07:12:54.334Z,1.20
2022-08-08T07:16:04.677Z,1.20
2022-08-08T07:19:00.784Z,1.00
2022-08-08T07:22:05.632Z,1.35
2022-08-08T07:24:53.176Z,1.15
2022-08-08T07:27:35.243Z,1.10
2022-08-08T07:30:19.600Z,1.50
2022-08-08T07:32:53.157Z,1.50
2022-08-08T07:35:21.535Z,1.38
2022-08-08T07:38:04.274Z,0.93
2022-08-08T07:40:37.686Z,3.40
2022-08-08T07:43:12.271Z,2.00
2022-08-08T07:46:05.070Z,1.13
2022-08-08T07:48:29.902Z,1.20
2022-08-08T07:51:00.751Z,2.65
2022-08-08T07:54:02.309Z,0.73
2022-08-08T07:56:44.947Z,0.90
2022-08-08T07:59:16.301Z,1.13
2022-08-08T08:02:35.200Z,1.10
2022-08-08T08:04:52.380Z,0.98
2022-08-08T08:07:22.632Z,1.00
2022-08-08T08:09:55.825Z,1.63
2022-08-08T08:12:35.300Z,0.70
2022-08-08T08:15:15.625Z,0.90
2022-08-08T08:17:55.451Z,0.60
2022-08-08T08:20:30.436Z,0.70
2022-08-08T08:23:00.040Z,0.85
2022-08-08T08:25:42.090Z,0.55
2022-08-08T08:28:10.696Z,0.57
2022-08-08T08:30:45.736Z,0.57
2022-08-08T08:33:12.710Z,0.50
2022-08-08T08:36:18.703Z,0.63
2022-08-08T08:38:28.161Z,0.95
2022-08-08T08:40:55.264Z,0.82
2022-08-08T08:43:26.956Z,0.80
2022-08-08T08:45:57.716Z,1.17
2022-08-08T08:48:25.480Z,1.02
2022-08-08T08:50:54.915Z,1.15
2022-08-08T08:53:54.438Z,1.25
2022-08-08T08:56:15.020Z,1.30
2022-08-08T08:58:52.579Z,1.13
2022-08-08T09:01:24.639Z,1.17
2022-08-08T09:04:00.667Z,1.15
2022-08-08T09:06:37.281Z,0.93
2022-08-08T09:09:38.818Z,1.58
2022-08-08T09:12:10.828Z,0.70
2022-08-08T09:14:42.606Z,1.00
2022-08-08T09:17:18.409Z,0.80
2022-08-08T09:21:59.505Z,0.85
2022-08-08T09:22:36.024Z,0.80
2022-08-08T09:25:07.400Z,0.82
2022-08-08T09:27:55.847Z,0.60
2022-08-08T09:30:28.578Z,0.90
2022-08-08T09:33:54.572Z,0.90
2022-08-08T09:35:49.740Z,0.90
2022-08-08T09:39:03.485Z,0.80
2022-08-08T09:41:54.993Z,0.90
2022-08-08T09:46:01.943Z,1.40
2022-08-08T09:48:21.957Z,1.30
2022-08-08T09:51:04.724Z,0.80
2022-08-08T09:54:09.673Z,1.45
2022-08-08T09:56:48.191Z,0.98
2022-08-08T10:00:01.942Z,1.52
2022-08-08T10:02:24.669Z,1.45
2022-08-08T10:04:52.905Z,0.98
2022-08-08T10:07:19.853Z,0.77
2022-08-08T10:10:00.368Z,1.10
2022-08-08T10:12:53.742Z,1.00
2022-08-08T10:15:27.507Z,0.60
2022-08-08T10:18:09.219Z,0.47
2022-08-08T10:20:58.114Z,0.50
2022-08-08T10:23:55.945Z,0.70
2022-08-08T10:26:59.298Z,0.40
2022-08-08T10:29:57.114Z,0.55
2022-08-08T10:32:48.444Z,0.70
2022-08-08T10:36:08.010Z,0.50
2022-08-08T10:38:16.230Z,0.50
2022-08-08T10:40:50.325Z,0.30
2022-08-08T10:43:18.111Z,0.88
2022-08-08T10:45:55.866Z,0.85
2022-08-08T10:48:56.088Z,1.00
2022-08-08T10:51:40.780Z,0.57
2022-08-08T10:54:24.848Z,0.60
2022-08-08T10:57:08.871Z,0.52
2022-08-08T10:59:39.745Z,0.60
2022-08-08T11:02:09.294Z,0.55
2022-08-08T11:04:53.054Z,0.60
2022-08-08T11:08:31.248Z,0.50
2022-08-08T11:10:28.368Z,0.60
2022-08-08T11:15:52.372Z,0.50
2022-08-08T11:18:30.769Z,0.60
2022-08-08T11:21:10.533Z,1.10
2022-08-08T11:24:02.125Z,0.60
2022-08-08T11:26:33.766Z,1.33
2022-08-08T11:29:08.164Z,0.63
2022-08-08T11:31:51.845Z,0.80
2022-08-08T11:34:34.590Z,0.60
2022-08-08T11:37:15.446Z,0.50
2022-08-08T11:39:43.877Z,0.68
2022-08-08T11:42:26.942Z,0.47
2022-08-08T11:44:58.732Z,1.02
2022-08-08T11:47:39.222Z,0.50
2022-08-08T11:50:13.792Z,0.65
2022-08-08T11:52:47.379Z,0.47
2022-08-08T11:55:28.671Z,0.55
2022-08-08T11:58:15.682Z,0.60
2022-08-08T12:00:56.391Z,0.65
2022-08-08T12:03:30.593Z,1.17
2022-08-08T12:05:57.990Z,0.57
2022-08-08T12:08:37.826Z,0.47
2022-08-08T12:11:18.333Z,0.60
2022-08-08T12:14:04.835Z,0.38
2022-08-08T12:16:43.476Z,0.40
2022-08-08T12:19:14.267Z,0.32
2022-08-08T12:22:00.553Z,0.52
2022-08-08T12:24:29.809Z,0.40
2022-08-08T12:26:58.455Z,0.60
2022-08-08T12:29:42.061Z,0.40
2022-08-08T12:32:17.374Z,0.40
2022-08-08T12:35:04.534Z,0.63
2022-08-08T12:37:47.915Z,0.45
2022-08-08T12:40:58.463Z,1.25
2022-08-08T12:43:46.213Z,0.40
2022-08-08T12:46:25.186Z,0.47
2022-08-08T12:49:40.168Z,0.30
2022-08-08T12:52:00.173Z,0.60
2022-08-08T12:54:40.908Z,0.45
2022-08-08T12:57:17.593Z,0.47
2022-08-08T13:00:05.365Z,0.63
2022-08-08T13:02:51.101Z,0.50
2022-08-08T13:05:26.270Z,0.47
2022-08-08T13:08:21.198Z,0.30
2022-08-08T13:10:56.543Z,0.85
2022-08-08T13:13:35.825Z,0.60
2022-08-08T13:16:39.960Z,0.32
2022-08-08T13:19:14.001Z,0.70
2022-08-08T13:21:53.414Z,1.33
2022-08-08T13:24:42.343Z,0.50
2022-08-08T13:27:35.436Z,0.60
2022-08-08T13:30:06.223Z,0.50
2022-08-08T13:32:39.485Z,0.60
2022-08-08T13:35:24.240Z,0.45
2022-08-08T13:38:06.647Z,0.40
2022-08-08T13:40:35.552Z,0.60
2022-08-08T13:43:07.946Z,0.40
2022-08-08T13:45:35.268Z,0.52
2022-08-08T13:48:08.535Z,0.68
2022-08-08T13:50:49.014Z,0.30
2022-08-08T13:53:33.890Z,0.50
2022-08-08T13:56:11.585Z,0.70
2022-08-08T13:58:56.029Z,0.60
2022-08-08T14:01:41.952Z,0.40
2022-08-08T14:04:24.326Z,0.35
2022-08-08T14:07:01.765Z,0.57
2022-08-08T14:10:05.072Z,0.52
2022-08-08T14:12:31.464Z,0.45
2022-08-08T14:14:59.892Z,0.40
2022-08-08T14:17:57.131Z,0.30
2022-08-08T14:20:15.609Z,0.50
2022-08-08T14:24:04.401Z,0.40
2022-08-08T14:26:10.830Z,0.47
2022-08-08T14:28:39.689Z,0.73
2022-08-08T14:31:10.385Z,0.68
2022-08-08T14:33:37.244Z,0.80
2022-08-08T14:36:13.485Z,0.57
2022-08-08T14:38:52.620Z,0.40
2022-08-08T14:41:53.633Z,0.60
2022-08-08T14:44:21.185Z,0.70
2022-08-08T14:47:00.335Z,0.32
2022-08-08T14:49:37.928Z,0.40
2022-08-08T14:52:21.663Z,0.40
2022-08-08T14:54:52.161Z,0.50
2022-08-08T14:57:20.486Z,0.40
2022-08-08T14:59:56.152Z,0.50
2022-08-08T15:02:31.209Z,0.50
2022-08-08T15:05:10.858Z,0.45
2022-08-08T15:07:41.369Z,0.40
2022-08-08T15:10:12.996Z,0.60
2022-08-08T15:12:41.339Z,0.40
2022-08-08T15:15:09.840Z,0.40
2022-08-08T15:17:39.569Z,0.50
2022-08-08T15:20:14.186Z,0.50
2022-08-08T15:22:44.710Z,0.70
2022-08-08T15:25:17.569Z,0.63
2022-08-08T15:28:03.384Z,0.50
2022-08-08T15:30:31.830Z,0.50
2022-08-08T15:33:00.665Z,1.40
2022-08-08T15:35:27.451Z,0.70
2022-08-08T15:37:56.798Z,0.55
2022-08-08T15:40:28.137Z,0.43
2022-08-08T15:42:55.932Z,0.40
2022-08-08T15:45:23.014Z,0.50
2022-08-08T15:48:11.064Z,0.38
2022-08-08T15:51:02.012Z,0.43
2022-08-08T15:53:33.079Z,0.60
2022-08-08T15:56:12.695Z,0.30
2022-08-08T15:58:45.935Z,0.50
2022-08-08T16:01:16.527Z,0.60
2022-08-08T16:03:45.953Z,0.50
2022-08-08T16:06:28.907Z,0.40
2022-08-08T16:13:00.600Z,0.32
2022-08-08T16:13:03.531Z,0.40
2022-08-08T16:14:39.086Z,0.30
2022-08-08T16:17:58.001Z,0.47
2022-08-08T16:20:10.015Z,0.63
2022-08-08T16:22:41.797Z,0.40
2022-08-08T16:25:09.827Z,1.10
2022-08-08T16:27:38.906Z,0.30
2022-08-08T16:30:14.467Z,0.45
2022-08-08T16:32:56.708Z,0.40
2022-08-08T16:35:23.687Z,0.40
2022-08-08T16:37:52.025Z,0.60
2022-08-08T16:40:19.905Z,0.40
2022-08-08T16:42:51.703Z,0.43
2022-08-08T16:46:44.082Z,0.20
2022-08-08T16:48:08.884Z,0.30
2022-08-08T16:50:35.843Z,0.60
2022-08-08T16:55:00.746Z,0.30
2022-08-08T16:55:55.081Z,0.40
2022-08-08T16:58:46.260Z,0.30
2022-08-08T17:01:16.449Z,0.30
2022-08-08T17:04:00.043Z,0.30
2022-08-08T17:06:43.466Z,0.40
2022-08-08T17:09:15.617Z,0.20
2022-08-08T17:11:49.140Z,0.60
2022-08-08T17:14:27.731Z,0.22
2022-08-08T17:17:41.380Z,0.40
2022-08-08T17:19:53.939Z,0.30
2022-08-08T17:22:21.159Z,0.30
2022-08-08T17:25:41.519Z,0.30
2022-08-08T17:28:13.802Z,0.30
2022-08-08T17:30:43.197Z,0.30
2022-08-08T17:34:54.212Z,0.20
2022-08-08T17:36:11.115Z,0.47
2022-08-08T17:38:56.730Z,0.32
2022-08-08T17:41:38.673Z,0.57
2022-08-08T17:44:06.485Z,0.55
2022-08-08T17:46:49.235Z,0.50
2022-08-08T17:49:24.767Z,0.40
2022-08-08T17:51:55.823Z,0.40
2022-08-08T17:54:26.202Z,0.32
2022-08-08T17:56:56.001Z,0.20
2022-08-08T17:59:30.458Z,0.40
2022-08-08T18:02:04.583Z,0.50
2022-08-08T18:04:42.565Z,0.60
2022-08-08T18:08:15.582Z,0.47
2022-08-08T18:10:07.407Z,0.43
2022-08-08T18:12:34.398Z,0.35
2022-08-08T18:15:01.732Z,0.50
2022-08-08T18:18:05.226Z,0.38
2022-08-08T18:20:37.038Z,0.52
2022-08-08T18:23:04.503Z,0.38
2022-08-08T18:25:37.367Z,0.43
2022-08-08T18:28:04.837Z,0.50
2022-08-08T18:30:33.020Z,0.52
2022-08-08T18:33:02.524Z,0.30
2022-08-08T18:35:41.502Z,0.40
2022-08-08T18:38:16.672Z,0.75
2022-08-08T18:40:45.582Z,1.00
2022-08-08T18:43:16.364Z,0.55
2022-08-08T18:46:53.153Z,0.40
2022-08-08T18:48:34.361Z,0.50
2022-08-08T18:51:16.902Z,0.40
2022-08-08T18:54:02.753Z,0.40
2022-08-08T18:56:39.901Z,0.40
2022-08-08T18:59:06.655Z,0.40
2022-08-08T19:02:28.021Z,0.40
2022-08-08T19:04:20.404Z,0.40
2022-08-08T19:06:50.852Z,0.50
2022-08-08T19:09:17.598Z,0.60
2022-08-08T19:11:52.287Z,1.15
2022-08-08T19:14:24.208Z,0.80
2022-08-08T19:16:54.101Z,0.90
2022-08-08T19:19:25.274Z,0.90
2022-08-08T19:21:52.245Z,0.63
2022-08-08T19:24:39.185Z,0.50
2022-08-08T19:27:07.324Z,0.40
2022-08-08T19:29:42.325Z,0.45
2022-08-08T19:32:13.079Z,0.75
2022-08-08T19:34:48.006Z,1.30
2022-08-08T19:37:43.705Z,2.00
2022-08-08T19:40:16.681Z,1.00
2022-08-08T19:42:45.444Z,0.80
2022-08-08T19:45:58.304Z,0.50
2022-08-08T19:48:04.534Z,0.73
2022-08-08T19:50:33.837Z,0.55
2022-08-08T19:53:03.034Z,1.75
2022-08-08T19:55:48.965Z,0.60
2022-08-08T19:58:19.841Z,0.90
2022-08-08T20:00:53.119Z,0.50
2022-08-08T20:04:00.418Z,0.50
2022-08-08T20:06:13.664Z,0.45
2022-08-08T20:08:48.151Z,0.35
2022-08-08T20:11:18.452Z,0.40
2022-08-08T20:14:12.766Z,0.60
2022-08-08T20:16:39.380Z,1.50
2022-08-08T20:19:08.988Z,0.63
2022-08-08T20:21:38.171Z,0.60
2022-08-08T20:24:07.701Z,0.60
2022-08-08T20:26:38.146Z,0.90
2022-08-08T20:29:07.002Z,0.50
2022-08-08T20:32:06.814Z,0.50
2022-08-08T20:34:30.307Z,0.60
2022-08-08T20:37:03.616Z,0.50
2022-08-08T20:39:41.376Z,1.10
2022-08-08T20:42:23.725Z,0.60
2022-08-08T20:44:58.622Z,0.95
2022-08-08T20:47:36.065Z,2.40
2022-08-08T20:50:05.608Z,1.30
2022-08-08T20:52:32.534Z,0.93
2022-08-08T20:55:07.587Z,1.20
2022-08-08T20:57:51.322Z,1.65
2022-08-08T21:00:18.764Z,1.27
2022-08-08T21:02:48.519Z,1.27
2022-08-08T21:05:19.438Z,1.25
2022-08-08T21:08:33.536Z,0.90
2022-08-08T21:10:36.585Z,0.98
2022-08-08T21:13:05.936Z,1.90
2022-08-08T21:16:04.677Z,2.38
2022-08-08T21:18:23.408Z,2.10
2022-08-08T21:20:54.685Z,1.65
2022-08-08T21:23:25.265Z,2.08
2022-08-08T21:26:09.641Z,1.25
2022-08-08T21:28:38.574Z,1.50
2022-08-08T21:31:22.617Z,1.13
2022-08-08T21:33:52.117Z,1.13
2022-08-08T21:36:28.570Z,1.00
2022-08-08T21:38:57.233Z,1.00
2022-08-08T21:41:28.924Z,0.80
2022-08-08T21:44:14.216Z,0.77
2022-08-08T21:48:04.260Z,0.80
2022-08-08T21:49:29.838Z,0.60
2022-08-08T21:54:35.966Z,0.70
2022-08-08T21:54:53.803Z,1.05
2022-08-08T21:57:29.826Z,0.77
2022-08-08T22:00:26.271Z,0.70
2022-08-08T22:02:53.129Z,0.90
2022-08-08T22:05:19.906Z,0.80
2022-08-08T22:07:50.054Z,0.70
2022-08-08T22:10:32.378Z,0.77
2022-08-08T22:13:17.067Z,0.88
2022-08-08T22:15:59.267Z,0.60
2022-08-08T22:18:33.731Z,0.57
2022-08-08T22:21:13.726Z,0.82
2022-08-08T22:23:50.479Z,0.77
2022-08-08T22:26:29.180Z,0.70
2022-08-08T22:29:14.625Z,0.77
2022-08-08T22:32:01.793Z,0.75
2022-08-08T22:34:39.342Z,0.65
2022-08-08T22:37:15.040Z,0.60
2022-08-08T22:40:01.428Z,0.60
2022-08-08T22:42:34.691Z,0.63
2022-08-08T22:45:13.596Z,0.60
2022-08-08T22:47:48.737Z,0.70
2022-08-08T22:50:25.767Z,0.70
2022-08-08T22:54:15.700Z,0.80
2022-08-08T22:55:58.329Z,0.57
2022-08-08T22:58:33.290Z,0.90
2022-08-08T23:01:26.685Z,0.70
2022-08-08T23:04:01.365Z,0.82
2022-08-08T23:06:28.153Z,0.63
2022-08-08T23:09:00.107Z,0.80
2022-08-08T23:12:18.375Z,1.00
2022-08-08T23:14:22.160Z,1.10
2022-08-08T23:16:59.045Z,1.10
2022-08-08T23:19:32.447Z,1.02
2022-08-08T23:22:05.126Z,1.60
2022-08-08T23:24:41.211Z,1.70
2022-08-08T23:27:17.372Z,1.45
2022-08-08T23:30:04.186Z,1.08
2022-08-08T23:32:31.355Z,0.80
2022-08-08T23:34:59.854Z,0.80
2022-08-08T23:37:54.202Z,1.30
2022-08-08T23:40:14.750Z,1.27
2022-08-08T23:42:42.726Z,0.70
2022-08-08T23:45:12.549Z,1.00
2022-08-08T23:49:01.304Z,0.85
2022-08-08T23:50:30.699Z,0.60
2022-08-08T23:53:03.689Z,0.88
2022-08-08T23:55:32.461Z,1.15
2022-08-08T23:58:06.183Z,0.80
